createdAt,value
2023-10-19T00:00:21.523Z,20.23
2023-10-19T00:02:53.050Z,17.63
2023-10-19T00:05:23.008Z,19.42
2023-10-19T00:07:51.256Z,21.30
2023-10-19T00:10:19.142Z,19.52
2023-10-19T00:12:53.875Z,21.48
2023-10-19T00:15:25.768Z,17.38
2023-10-19T00:17:56.339Z,18.55
2023-10-19T00:20:38.955Z,21.35
2023-10-19T00:23:07.589Z,19.98
2023-10-19T00:25:36.790Z,18.50
2023-10-19T00:28:07.167Z,18.33
2023-10-19T00:30:37.052Z,18.77
2023-10-19T00:33:06.891Z,20.00
2023-10-19T00:35:43.187Z,20.00
2023-10-19T00:38:28.945Z,21.23
2023-10-19T00:41:01.644Z,19.13
2023-10-19T00:43:34.802Z,20.15
2023-10-19T00:46:06.506Z,20.65
2023-10-19T00:48:35.967Z,22.20
2023-10-19T00:51:24.326Z,19.80
2023-10-19T00:53:52.820Z,20.95
2023-10-19T00:56:21.963Z,20.38
2023-10-19T00:58:54.630Z,20.38
2023-10-19T01:01:26.272Z,26.05
2023-10-19T01:03:57.551Z,21.90
2023-10-19T01:06:27.220Z,21.20
2023-10-19T01:08:55.643Z,22.63
2023-10-19T01:11:29.950Z,20.67
2023-10-19T01:14:00.785Z,19.98
2023-10-19T01:16:29.165Z,20.48
2023-10-19T01:18:57.509Z,23.00
2023-10-19T01:21:36.949Z,20.67
2023-10-19T01:24:13.738Z,21.83
2023-10-19T01:26:42.232Z,19.90
2023-10-19T01:29:15.134Z,20.75
2023-10-19T01:31:57.404Z,21.23
2023-10-19T01:36:56.895Z,20.50
2023-10-19T01:39:26.990Z,24.23
2023-10-19T01:41:54.137Z,23.63
2023-10-19T01:44:22.681Z,20.73
2023-10-19T01:46:49.750Z,23.23
2023-10-19T01:49:27.183Z,20.65
2023-10-19T01:51:55.252Z,21.25
2023-10-19T01:54:26.146Z,21.58
2023-10-19T01:56:58.205Z,21.63
2023-10-19T01:59:28.640Z,22.27
2023-10-19T02:01:58.567Z,25.25
2023-10-19T02:04:27.354Z,21.15
2023-10-19T02:06:55.746Z,22.00
2023-10-19T02:09:24.326Z,23.70
2023-10-19T02:11:57.452Z,23.30
2023-10-19T02:14:28.006Z,25.38
2023-10-19T02:16:58.285Z,24.67
2023-10-19T02:19:27.696Z,24.52
2023-10-19T02:21:57.216Z,21.67
2023-10-19T02:24:26.079Z,22.83
2023-10-19T02:26:54.897Z,21.63
2023-10-19T02:29:24.121Z,20.90
2023-10-19T02:31:53.937Z,20.25
2023-10-19T02:34:24.114Z,23.92
2023-10-19T02:36:51.270Z,22.40
2023-10-19T02:39:19.434Z,20.70
2023-10-19T02:41:49.907Z,25.27
2023-10-19T02:44:21.273Z,22.45
2023-10-19T02:46:51.650Z,25.73
2023-10-19T02:49:21.913Z,23.75
2023-10-19T02:51:51.238Z,23.85
2023-10-19T02:54:21.014Z,21.05
2023-10-19T02:56:51.365Z,23.08
2023-10-19T02:59:24.034Z,21.15
2023-10-19T03:01:54.352Z,20.67
2023-10-19T03:04:22.925Z,23.55
2023-10-19T03:06:51.219Z,23.52
2023-10-19T03:09:23.823Z,20.85
2023-10-19T03:11:54.330Z,21.40
2023-10-19T03:14:21.422Z,22.17
2023-10-19T03:16:50.930Z,22.30
2023-10-19T03:19:18.340Z,22.23
2023-10-19T03:21:50.335Z,21.88
2023-10-19T03:24:36.717Z,21.73
2023-10-19T03:27:13.209Z,21.30
2023-10-19T03:29:41.913Z,19.63
2023-10-19T03:32:10.867Z,24.38
2023-10-19T03:34:40.603Z,23.05
2023-10-19T03:37:15.789Z,23.80
2023-10-19T03:39:47.222Z,20.85
2023-10-19T03:42:15.796Z,22.95
2023-10-19T03:44:51.820Z,21.08
2023-10-19T03:47:21.722Z,19.40
2023-10-19T03:49:53.392Z,13.20
2023-10-19T03:52:23.188Z,20.73
2023-10-19T03:54:51.807Z,19.17
2023-10-19T03:57:26.782Z,20.08
2023-10-19T03:59:58.162Z,18.88
2023-10-19T04:02:30.700Z,18.60
2023-10-19T04:04:59.767Z,19.40
2023-10-19T04:07:32.492Z,22.25
2023-10-19T04:10:10.907Z,23.55
2023-10-19T04:12:43.910Z,21.27
2023-10-19T04:15:17.249Z,21.88
2023-10-19T04:17:49.970Z,20.20
2023-10-19T04:20:31.109Z,22.42
2023-10-19T04:23:07.730Z,22.10
2023-10-19T04:25:35.683Z,23.20
2023-10-19T04:28:04.671Z,25.27
2023-10-19T04:30:34.594Z,23.70
2023-10-19T04:33:03.305Z,20.42
2023-10-19T04:35:35.292Z,21.40
2023-10-19T04:38:08.676Z,22.20
2023-10-19T04:40:37.153Z,24.73
2023-10-19T04:43:06.708Z,22.17
2023-10-19T04:45:35.127Z,21.92
2023-10-19T04:48:05.931Z,21.33
2023-10-19T04:50:34.272Z,20.95
2023-10-19T04:53:02.233Z,20.38
2023-10-19T04:55:33.495Z,18.98
2023-10-19T04:58:01.817Z,21.83
2023-10-19T05:00:29.686Z,18.95
2023-10-19T05:02:57.963Z,21.42
2023-10-19T05:05:26.214Z,21.25
2023-10-19T05:07:54.123Z,19.02
2023-10-19T05:10:22.347Z,19.65
2023-10-19T05:12:51.818Z,21.60
2023-10-19T05:15:20.044Z,20.65
2023-10-19T05:17:49.143Z,20.73
2023-10-19T05:20:17.508Z,19.83
2023-10-19T05:22:45.505Z,18.75
2023-10-19T05:25:13.709Z,19.23
2023-10-19T05:27:43.846Z,20.63
2023-10-19T05:30:14.510Z,17.85
2023-10-19T05:32:42.807Z,18.77
2023-10-19T05:35:14.704Z,22.70
2023-10-19T05:37:43.014Z,17.33
2023-10-19T05:40:16.078Z,18.70
2023-10-19T05:42:44.034Z,20.23
2023-10-19T05:45:17.400Z,19.58
2023-10-19T05:47:46.127Z,17.65
2023-10-19T05:50:16.459Z,20.65
2023-10-19T05:52:44.931Z,19.25
2023-10-19T05:55:13.236Z,17.75
2023-10-19T05:57:42.461Z,20.05
2023-10-19T06:00:14.398Z,18.10
2023-10-19T06:02:46.047Z,20.83
2023-10-19T06:05:16.632Z,22.48
2023-10-19T06:07:45.589Z,26.20
2023-10-19T06:10:17.200Z,26.55
2023-10-19T06:12:45.920Z,25.63
2023-10-19T06:15:14.856Z,22.70
2023-10-19T06:17:47.457Z,20.25
2023-10-19T06:20:25.389Z,20.92
2023-10-19T06:22:54.216Z,19.80
2023-10-19T06:25:24.307Z,18.10
2023-10-19T06:27:53.888Z,21.10
2023-10-19T06:30:24.142Z,22.33
2023-10-19T06:32:58.104Z,16.70
2023-10-19T06:35:26.239Z,21.42
2023-10-19T06:37:56.476Z,20.48
2023-10-19T06:40:24.952Z,20.33
2023-10-19T06:42:53.124Z,22.10
2023-10-19T06:45:21.105Z,22.27
2023-10-19T06:47:51.136Z,18.10
2023-10-19T06:50:22.443Z,19.15
2023-10-19T06:52:51.301Z,19.42
2023-10-19T06:55:21.342Z,16.88
2023-10-19T06:57:50.681Z,19.27
2023-10-19T07:00:20.992Z,17.42
2023-10-19T07:02:50.321Z,19.83
2023-10-19T07:05:23.154Z,16.55
2023-10-19T07:07:56.121Z,17.98
2023-10-19T07:10:24.854Z,16.38
2023-10-19T07:12:55.594Z,17.40
2023-10-19T07:15:26.441Z,18.40
2023-10-19T07:17:56.769Z,17.52
2023-10-19T07:20:28.226Z,16.83
2023-10-19T07:23:01.719Z,14.88
2023-10-19T07:25:30.563Z,14.45
2023-10-19T07:28:01.184Z,17.02
2023-10-19T07:30:29.927Z,14.52
2023-10-19T07:33:00.053Z,14.48
2023-10-19T07:35:28.827Z,16.25
2023-10-19T07:37:58.769Z,13.80
2023-10-19T07:40:27.098Z,13.43
2023-10-19T07:42:55.973Z,13.35
2023-10-19T07:45:23.948Z,13.27
2023-10-19T07:47:52.082Z,16.23
2023-10-19T07:50:20.071Z,12.43
2023-10-19T07:52:50.182Z,13.07
2023-10-19T07:55:20.523Z,15.55
2023-10-19T07:57:51.809Z,13.93
2023-10-19T08:00:22.245Z,12.90
2023-10-19T08:02:50.935Z,12.88
2023-10-19T08:05:20.569Z,12.48
2023-10-19T08:07:51.280Z,12.75
2023-10-19T08:10:22.134Z,13.30
2023-10-19T08:12:51.631Z,10.70
2023-10-19T08:15:21.031Z,12.80
2023-10-19T08:17:51.031Z,12.55
2023-10-19T08:20:25.098Z,22.13
2023-10-19T08:22:55.149Z,17.20
2023-10-19T08:25:25.273Z,13.85
2023-10-19T08:27:57.661Z,13.20
2023-10-19T08:30:28.590Z,11.35
2023-10-19T08:32:59.450Z,13.82
2023-10-19T08:35:28.688Z,11.18
2023-10-19T08:37:58.965Z,12.32
2023-10-19T08:40:29.538Z,12.40
2023-10-19T08:42:57.970Z,12.57
2023-10-19T08:45:27.100Z,10.68
2023-10-19T08:47:59.256Z,11.10
2023-10-19T08:50:29.981Z,16.17
2023-10-19T08:53:01.149Z,12.20
2023-10-19T08:55:47.544Z,15.60
2023-10-19T08:58:18.973Z,14.77
2023-10-19T09:00:50.793Z,19.67
2023-10-19T09:03:19.590Z,17.42
2023-10-19T09:05:48.600Z,18.85
2023-10-19T09:08:19.865Z,20.38
2023-10-19T09:10:53.165Z,20.50
2023-10-19T09:13:23.793Z,23.67
2023-10-19T09:15:55.487Z,20.02
2023-10-19T09:18:25.660Z,22.45
2023-10-19T09:20:55.446Z,22.67
2023-10-19T09:23:24.641Z,24.02
2023-10-19T09:25:55.405Z,29.92
2023-10-19T09:28:25.234Z,23.67
2023-10-19T09:30:54.876Z,25.10
2023-10-19T09:33:25.544Z,27.60
2023-10-19T09:35:54.258Z,24.88
2023-10-19T09:38:22.955Z,25.98
2023-10-19T09:40:51.616Z,28.42
2023-10-19T09:43:28.298Z,25.25
2023-10-19T09:46:01.699Z,25.67
2023-10-19T09:48:29.862Z,27.02
2023-10-19T09:50:59.763Z,24.35
2023-10-19T09:53:29.264Z,25.40
2023-10-19T09:56:01.189Z,22.60
2023-10-19T09:58:38.898Z,24.25
2023-10-19T10:01:13.551Z,23.55
2023-10-19T10:03:46.195Z,24.23
2023-10-19T10:06:15.540Z,22.08
2023-10-19T10:08:45.163Z,17.90
2023-10-19T10:11:20.075Z,21.50
2023-10-19T10:13:53.149Z,20.10
2023-10-19T10:16:24.199Z,17.48
2023-10-19T10:18:53.450Z,17.88
2023-10-19T10:21:23.039Z,18.30
2023-10-19T10:23:54.145Z,17.08
2023-10-19T10:26:25.846Z,18.48
2023-10-19T10:29:15.979Z,19.77
2023-10-19T10:31:46.072Z,21.13
2023-10-19T10:34:36.710Z,21.35
2023-10-19T10:37:06.668Z,19.42
2023-10-19T10:39:37.516Z,19.42
2023-10-19T10:42:07.383Z,20.90
2023-10-19T10:44:41.510Z,16.67
2023-10-19T10:47:11.785Z,18.50
2023-10-19T10:49:50.832Z,19.05
2023-10-19T10:52:30.893Z,17.15
2023-10-19T10:55:01.354Z,16.27
2023-10-19T10:57:36.178Z,10.45
2023-10-19T11:00:09.269Z,16.58
2023-10-19T11:02:41.416Z,12.50
2023-10-19T11:07:43.462Z,15.05
2023-10-19T11:10:12.208Z,13.95
2023-10-19T11:12:40.164Z,12.98
2023-10-19T11:15:12.126Z,9.60
2023-10-19T11:17:49.804Z,12.05
2023-10-19T11:20:24.024Z,9.55
2023-10-19T11:22:53.839Z,13.73
2023-10-19T11:25:23.177Z,12.85
2023-10-19T11:27:56.069Z,12.00
2023-10-19T11:30:27.495Z,12.43
2023-10-19T11:32:58.279Z,15.07
2023-10-19T11:35:28.634Z,15.65
2023-10-19T11:37:58.441Z,12.52
2023-10-19T11:40:27.663Z,15.35
2023-10-19T11:42:58.683Z,15.48
2023-10-19T11:45:28.803Z,14.73
2023-10-19T11:47:58.136Z,14.05
2023-10-19T11:50:26.403Z,18.30
2023-10-19T11:52:55.743Z,16.17
2023-10-19T11:55:23.821Z,14.02
2023-10-19T11:57:52.512Z,12.32
2023-10-19T12:01:10.306Z,13.80
2023-10-19T12:03:41.375Z,9.27
2023-10-19T12:06:09.901Z,11.18
2023-10-19T12:08:39.046Z,13.02
2023-10-19T12:11:16.882Z,10.15
2023-10-19T12:13:46.355Z,12.93
2023-10-19T12:16:16.818Z,12.55
2023-10-19T12:18:47.775Z,10.60
2023-10-19T12:21:19.192Z,12.55
2023-10-19T12:23:52.202Z,10.32
2023-10-19T12:26:21.221Z,9.65
2023-10-19T12:28:50.762Z,11.32
2023-10-19T12:31:20.484Z,12.02
2023-10-19T12:33:50.488Z,8.65
2023-10-19T12:36:32.654Z,12.30
2023-10-19T12:39:01.394Z,9.18
2023-10-19T12:41:33.096Z,11.73
2023-10-19T12:44:03.479Z,8.40
2023-10-19T12:46:32.368Z,10.82
2023-10-19T12:49:02.129Z,10.68
2023-10-19T12:51:31.063Z,9.98
2023-10-19T12:53:59.478Z,9.55
2023-10-19T12:56:30.528Z,8.50
2023-10-19T12:58:58.605Z,8.85
2023-10-19T13:01:29.151Z,9.32
2023-10-19T13:03:57.275Z,7.82
2023-10-19T13:06:30.784Z,9.18
2023-10-19T13:08:58.964Z,8.00
2023-10-19T13:11:28.494Z,8.68
2023-10-19T13:13:56.575Z,7.95
2023-10-19T13:16:26.368Z,9.45
2023-10-19T13:18:54.679Z,9.00
2023-10-19T13:21:29.167Z,8.00
2023-10-19T13:23:59.116Z,9.70
2023-10-19T13:26:27.776Z,7.75
2023-10-19T13:28:58.493Z,10.18
2023-10-19T13:31:29.107Z,10.65
2023-10-19T13:33:58.395Z,7.45
2023-10-19T13:36:28.762Z,14.60
2023-10-19T13:38:58.021Z,9.55
2023-10-19T13:41:25.891Z,8.93
2023-10-19T13:43:53.860Z,10.15
2023-10-19T13:46:24.752Z,11.38
2023-10-19T13:48:52.766Z,9.32
2023-10-19T13:51:21.852Z,11.02
2023-10-19T13:53:51.100Z,10.27
2023-10-19T13:56:20.704Z,12.20
2023-10-19T13:58:49.092Z,9.20
2023-10-19T14:01:18.879Z,12.57
2023-10-19T14:03:47.428Z,11.07
2023-10-19T14:06:16.524Z,11.02
2023-10-19T14:08:44.723Z,11.75
2023-10-19T14:11:13.137Z,12.52
2023-10-19T14:13:43.975Z,10.35
2023-10-19T14:16:12.881Z,12.02
2023-10-19T14:18:41.352Z,14.40
2023-10-19T14:21:16.846Z,16.20
2023-10-19T14:23:46.233Z,15.00
2023-10-19T14:26:15.332Z,13.25
2023-10-19T14:28:45.450Z,14.90
2023-10-19T14:31:14.551Z,13.68
2023-10-19T14:33:43.338Z,15.27
2023-10-19T14:36:11.840Z,15.63
2023-10-19T14:38:40.646Z,14.80
2023-10-19T14:41:10.595Z,12.80
2023-10-19T14:43:39.243Z,14.52
2023-10-19T14:46:09.254Z,14.70
2023-10-19T14:48:37.752Z,14.30
2023-10-19T14:51:06.920Z,13.68
2023-10-19T14:53:35.547Z,18.65
2023-10-19T14:56:04.025Z,16.35
2023-10-19T14:58:33.238Z,15.02
2023-10-19T15:01:01.630Z,18.95
2023-10-19T15:03:31.355Z,19.65
2023-10-19T15:06:01.055Z,18.38
2023-10-19T15:08:32.670Z,18.15
2023-10-19T15:11:01.307Z,16.40
2023-10-19T15:13:29.250Z,17.92
2023-10-19T15:15:58.025Z,19.33
2023-10-19T15:18:26.090Z,23.80
2023-10-19T15:20:56.159Z,22.63
2023-10-19T15:23:27.089Z,17.58
2023-10-19T15:25:55.027Z,26.95
2023-10-19T15:28:22.969Z,21.02
2023-10-19T15:30:54.227Z,17.13
2023-10-19T15:33:23.072Z,19.85
2023-10-19T15:35:52.475Z,20.42
2023-10-19T15:38:22.441Z,18.50
2023-10-19T15:40:51.861Z,21.33
2023-10-19T15:43:19.722Z,18.77
2023-10-19T15:45:50.684Z,19.95
2023-10-19T15:48:19.885Z,20.42
2023-10-19T15:50:48.346Z,28.10
2023-10-19T15:53:16.398Z,25.30
2023-10-19T15:55:45.627Z,22.23
2023-10-19T15:58:13.958Z,23.42
2023-10-19T16:00:42.116Z,26.98
2023-10-19T16:03:11.169Z,24.58
2023-10-19T16:05:39.474Z,20.90
2023-10-19T16:08:08.541Z,24.52
2023-10-19T16:10:37.588Z,21.73
2023-10-19T16:13:09.391Z,22.27
2023-10-19T16:15:37.467Z,25.10
2023-10-19T16:18:07.113Z,22.70
2023-10-19T16:20:35.148Z,26.52
2023-10-19T16:23:03.054Z,23.83
2023-10-19T16:25:31.112Z,25.95
2023-10-19T16:27:59.288Z,24.27
2023-10-19T16:30:32.606Z,22.02
2023-10-19T16:33:01.023Z,24.80
2023-10-19T16:35:30.859Z,26.23
2023-10-19T16:37:59.163Z,23.55
2023-10-19T16:40:29.436Z,20.80
2023-10-19T16:42:57.405Z,22.27
2023-10-19T16:45:26.085Z,19.83
2023-10-19T16:47:56.247Z,21.73
2023-10-19T16:50:24.506Z,27.05
2023-10-19T16:52:53.063Z,21.40
2023-10-19T16:55:21.326Z,26.23
2023-10-19T16:57:49.507Z,25.08
2023-10-19T17:00:21.467Z,23.92
2023-10-19T17:02:49.802Z,30.75
2023-10-19T17:05:20.855Z,25.60
2023-10-19T17:07:49.132Z,25.85
2023-10-19T17:10:17.323Z,25.77
2023-10-19T17:12:45.416Z,23.33
2023-10-19T17:15:15.111Z,25.77
2023-10-19T17:17:45.782Z,25.80
2023-10-19T17:20:14.366Z,21.33
2023-10-19T17:22:44.644Z,23.40
2023-10-19T17:25:13.016Z,22.38
2023-10-19T17:27:41.924Z,17.75
2023-10-19T17:30:14.257Z,24.42
2023-10-19T17:32:42.930Z,23.27
2023-10-19T17:35:11.937Z,18.42
2023-10-19T17:37:42.543Z,25.10
2023-10-19T17:40:13.931Z,22.17
2023-10-19T17:42:42.853Z,23.27
2023-10-19T17:45:11.852Z,27.10
2023-10-19T17:47:40.206Z,25.13
2023-10-19T17:50:11.777Z,23.83
2023-10-19T17:52:40.409Z,23.15
2023-10-19T17:55:09.329Z,29.58
2023-10-19T17:57:39.047Z,21.88
2023-10-19T18:00:12.676Z,24.85
2023-10-19T18:02:42.241Z,25.55
2023-10-19T18:05:12.803Z,24.40
2023-10-19T18:07:41.379Z,26.23
2023-10-19T18:10:12.972Z,26.08
2023-10-19T18:12:42.395Z,26.08
2023-10-19T18:15:11.247Z,27.77
2023-10-19T18:17:40.617Z,26.52
2023-10-19T18:20:10.391Z,27.67
2023-10-19T18:22:38.686Z,26.95
2023-10-19T18:25:08.741Z,28.05
2023-10-19T18:27:37.045Z,29.02
2023-10-19T18:30:11.436Z,24.85
2023-10-19T18:32:40.555Z,23.67
2023-10-19T18:35:11.945Z,26.48
2023-10-19T18:37:40.292Z,23.50
2023-10-19T18:40:09.471Z,22.27
2023-10-19T18:42:37.685Z,21.17
2023-10-19T18:45:07.875Z,20.17
2023-10-19T18:47:36.432Z,20.45
2023-10-19T18:50:19.206Z,24.00
2023-10-19T18:52:53.801Z,23.83
2023-10-19T18:55:24.929Z,22.65
2023-10-19T18:57:52.956Z,20.05
2023-10-19T19:00:26.235Z,19.17
2023-10-19T19:02:54.650Z,19.90
2023-10-19T19:05:23.512Z,19.58
2023-10-19T19:07:52.751Z,18.30
2023-10-19T19:10:21.089Z,17.90
2023-10-19T19:12:48.976Z,18.73
2023-10-19T19:15:17.824Z,19.67
2023-10-19T19:17:49.291Z,19.98
2023-10-19T19:20:22.426Z,17.77
2023-10-19T19:22:50.607Z,18.08
2023-10-19T19:25:18.849Z,18.75
2023-10-19T19:27:46.810Z,17.92
2023-10-19T19:30:15.125Z,18.80
2023-10-19T19:32:43.382Z,18.77
2023-10-19T19:35:14.232Z,16.55
2023-10-19T19:37:42.283Z,23.65
2023-10-19T19:40:13.845Z,22.15
2023-10-19T19:42:44.339Z,18.42
2023-10-19T19:45:13.350Z,19.45
2023-10-19T19:47:41.929Z,19.30
2023-10-19T19:50:11.093Z,18.27
2023-10-19T19:52:42.285Z,17.92
2023-10-19T19:55:13.519Z,19.95
2023-10-19T19:57:43.307Z,22.15
2023-10-19T20:00:16.496Z,21.70
2023-10-19T20:02:46.468Z,25.23
2023-10-19T20:05:15.652Z,18.58
2023-10-19T20:07:45.981Z,18.00
2023-10-19T20:10:15.455Z,27.42
2023-10-19T20:12:46.171Z,18.75
2023-10-19T20:15:16.747Z,18.58
2023-10-19T20:17:44.983Z,20.88
2023-10-19T20:20:13.855Z,18.73
2023-10-19T20:22:42.777Z,19.83
2023-10-19T20:25:13.613Z,23.52
2023-10-19T20:27:43.112Z,21.05
2023-10-19T20:30:14.496Z,18.55
2023-10-19T20:32:43.004Z,19.17
2023-10-19T20:35:14.137Z,18.65
2023-10-19T20:37:42.886Z,20.73
2023-10-19T20:40:13.475Z,21.65
2023-10-19T20:42:44.782Z,20.80
2023-10-19T20:45:13.499Z,20.83
2023-10-19T20:47:43.103Z,19.98
2023-10-19T20:50:11.864Z,20.23
2023-10-19T20:52:40.247Z,19.75
2023-10-19T20:55:10.653Z,20.55
2023-10-19T20:57:40.107Z,18.45
2023-10-19T21:00:10.452Z,16.70
2023-10-19T21:02:38.982Z,18.80
2023-10-19T21:05:08.251Z,18.00
2023-10-19T21:07:36.602Z,22.20
2023-10-19T21:10:07.427Z,17.20
2023-10-19T21:12:35.591Z,16.98
2023-10-19T21:15:06.138Z,18.13
2023-10-19T21:17:34.609Z,20.00
2023-10-19T21:20:03.012Z,18.80
2023-10-19T21:22:30.969Z,17.88
2023-10-19T21:25:03.463Z,17.98
2023-10-19T21:27:31.662Z,20.23
2023-10-19T21:29:59.843Z,16.60
2023-10-19T21:32:29.850Z,16.98
2023-10-19T21:34:59.599Z,19.33
2023-10-19T21:37:28.678Z,16.15
2023-10-19T21:39:56.615Z,17.05
2023-10-19T21:42:24.849Z,17.33
2023-10-19T21:44:53.090Z,17.83
2023-10-19T21:47:21.115Z,20.17
2023-10-19T21:50:01.499Z,18.58
2023-10-19T21:52:29.732Z,18.77
2023-10-19T21:54:57.784Z,16.95
2023-10-19T21:57:26.715Z,19.80
2023-10-19T21:59:54.764Z,18.42
2023-10-19T22:06:11.725Z,18.23
2023-10-19T22:08:39.957Z,23.80
2023-10-19T22:11:07.883Z,19.08
2023-10-19T22:13:36.045Z,22.73
2023-10-19T22:16:04.400Z,21.08
2023-10-19T22:18:33.708Z,21.63
2023-10-19T22:21:03.125Z,20.15
2023-10-19T22:23:32.713Z,20.67
2023-10-19T22:26:01.633Z,20.92
2023-10-19T22:28:29.941Z,22.48
2023-10-19T22:30:58.880Z,24.10
2023-10-19T22:33:27.372Z,20.23
2023-10-19T22:35:55.774Z,27.75
2023-10-19T22:38:24.160Z,25.45
2023-10-19T22:40:53.816Z,21.83
2023-10-19T22:43:23.660Z,24.10
2023-10-19T22:45:52.555Z,25.58
2023-10-19T22:48:20.773Z,22.27
2023-10-19T22:50:48.898Z,23.35
2023-10-19T22:53:16.882Z,20.15
2023-10-19T22:55:45.029Z,22.63
2023-10-19T22:58:14.435Z,22.08
2023-10-19T23:00:43.662Z,25.05
2023-10-19T23:03:12.516Z,21.58
2023-10-19T23:05:41.599Z,21.05
2023-10-19T23:08:09.885Z,22.73
2023-10-19T23:10:38.110Z,24.02
2023-10-19T23:13:06.677Z,21.83
2023-10-19T23:15:39.449Z,25.38
2023-10-19T23:18:11.163Z,21.88
2023-10-19T23:20:41.214Z,24.00
2023-10-19T23:23:12.616Z,24.58
2023-10-19T23:25:45.740Z,22.93
2023-10-19T23:28:16.440Z,24.00
2023-10-19T23:30:46.997Z,22.77
2023-10-19T23:33:15.117Z,23.55
2023-10-19T23:35:43.302Z,23.67
2023-10-19T23:38:11.308Z,23.42
2023-10-19T23:40:39.811Z,22.83
2023-10-19T23:43:08.309Z,26.73
2023-10-19T23:45:40.314Z,22.98
2023-10-19T23:48:12.254Z,24.23
2023-10-19T23:50:40.501Z,24.30
2023-10-19T23:53:10.441Z,23.58
2023-10-19T23:55:41.857Z,20.50
2023-10-19T23:58:11.715Z,22.38
